Terminal Aerodrome Forecast
Issued by NWS Charleston, WV

Current Version | Previous Version | Graphics & Text | Print | Product List | Glossary On
Versions: 1 2 3 4 5 6 7 8 9 10 11 12 13 14 15 16 17 18 19 20 21 22 23 24 25
000
FTUS41 KRLX 311155
TAFEKN
TAF
KEKN 311155Z 3112/0112 00000KT 5SM BR SCT002
     FM311230 28004KT P6SM SKC
     FM311600 29006KT P6SM SCT250
     FM010800 VRB03KT 3SM BR FEW060
     FM011000 VRB03KT 2SM BR FEW001 FEW060=

USA.gov is the U.S. government's official web portal to all federal, state and local government web resources and services.